Time;durP1;ratioP1;P1;durP2;ratioP2;P2;SDS_P1;SDS_P2;PMS_P1;PMS_P2;Temp;Humidity;BMP_temperature;BMP_pressure;BME280_temperature;BME280_humidity;BME280_pressure;Samples;Min_cycle;Max_cycle;Signal;HPM_P1;HPM_P2
2023/09/07 00:01:34;;;;;;;;;21.00;20.00;;;;;-143.90;82.13;75517.50;4923756;28;102280;-76
2023/09/07 00:04:03;;;;;;;;;20.00;20.00;;;;;-143.90;82.39;75521.63;4956766;28;102076;-76
2023/09/07 00:06:30;;;;;;;;;21.50;18.75;;;;;-143.90;82.50;75521.63;4933405;28;104401;-75
2023/09/07 00:08:57;;;;;;;;;20.25;17.25;;;;;-143.90;82.69;75531.97;4929652;28;102386;-75
2023/09/07 00:11:23;;;;;;;;;22.25;17.75;;;;;-143.90;82.63;75527.81;4929695;28;102539;-75
2023/09/07 00:13:50;;;;;;;;;23.75;19.25;;;;;-143.90;83.10;75529.91;4948460;28;103175;-75
2023/09/07 00:16:18;;;;;;;;;23.50;20.25;;;;;-143.90;82.65;75529.91;4930183;28;103344;-75
2023/09/07 00:18:45;;;;;;;;;20.25;18.75;;;;;-143.90;82.24;75519.56;4924515;28;102322;-76
2023/09/07 00:21:11;;;;;;;;;23.50;20.25;;;;;-143.90;82.10;75519.56;4928040;28;102392;-74
2023/09/07 00:23:39;;;;;;;;;26.75;22.25;;;;;-143.90;81.89;75521.63;4929997;28;102546;-75
2023/09/07 00:26:06;;;;;;;;;17.25;15.75;;;;;-143.90;82.72;75523.69;4925368;28;104182;-75
2023/09/07 00:28:33;;;;;;;;;18.50;16.50;;;;;-143.90;82.42;75527.81;4930865;28;102173;-76
2023/09/07 00:31:00;;;;;;;;;13.75;13.50;;;;;-143.90;82.79;75523.69;4931226;28;102847;-74
2023/09/07 00:33:27;;;;;;;;;13.25;12.00;;;;;-143.90;82.88;75523.69;4923658;28;102051;-75
2023/09/07 00:35:54;;;;;;;;;13.50;11.25;;;;;-143.90;82.92;75523.69;4923587;28;104181;-75
2023/09/07 00:38:20;;;;;;;;;7.50;6.00;;;;;-143.90;83.52;75529.91;4921476;28;102614;-74
2023/09/07 00:40:47;;;;;;;;;11.50;10.00;;;;;-143.90;84.02;75536.09;4923805;28;101973;-75
2023/09/07 00:43:14;;;;;;;;;7.75;7.25;;;;;-143.90;84.18;75544.38;4931721;28;103471;-75
2023/09/07 00:45:41;;;;;;;;;13.50;10.75;;;;;-143.90;83.50;75546.44;4923611;28;104329;-75
2023/09/07 00:48:08;;;;;;;;;15.00;14.25;;;;;-143.90;83.41;75540.22;4927225;28;102086;-74
2023/09/07 00:50:35;;;;;;;;;16.00;14.75;;;;;-143.90;83.25;75540.22;4932117;28;103464;-75
2023/09/07 00:53:03;;;;;;;;;14.00;14.00;;;;;-143.90;83.89;75552.63;4922569;28;102410;-75
2023/09/07 00:55:32;;;;;;;;;15.00;14.00;;;;;-143.90;84.95;75560.91;4923093;28;104010;-75
2023/09/07 00:57:59;;;;;;;;;15.75;13.75;;;;;-143.90;84.45;75562.97;4929957;28;102209;-75
2023/09/07 01:00:27;;;;;;;;;14.75;14.00;;;;;-143.90;84.77;75571.25;4928101;28;102702;-75
2023/09/07 01:02:53;;;;;;;;;15.75;12.75;;;;;-143.90;84.23;75567.13;4927236;28;103551;-75
2023/09/07 01:05:32;;;;;;;;;20.00;17.00;;;;;-143.90;84.16;75573.31;4913308;28;104337;-75
2023/09/07 01:08:10;;;;;;;;;11.00;11.00;;;;;-143.90;84.19;75577.44;4921040;28;103865;-75
2023/09/07 01:10:36;;;;;;;;;13.75;13.00;;;;;-143.90;84.44;75573.31;4927160;28;103476;-75
2023/09/07 01:13:03;;;;;;;;;14.00;13.00;;;;;-143.90;84.49;75579.53;4926694;28;102356;-75
2023/09/07 01:15:29;;;;;;;;;12.00;12.00;;;;;-143.90;84.77;75577.44;4923954;28;103702;-75
2023/09/07 01:17:58;;;;;;;;;18.75;17.50;;;;;-143.90;84.61;75585.72;4923496;28;102177;-75
2023/09/07 01:20:42;;;;;;;;;20.00;18.25;;;;;-143.90;84.00;75581.59;4920325;28;103610;-76
2023/09/07 01:23:11;;;;;;;;;17.25;16.25;;;;;-143.90;84.68;75585.72;4926627;28;103946;-75
2023/09/07 01:25:38;;;;;;;;;13.25;12.00;;;;;-143.90;85.36;75594.00;4921137;28;108059;-76
2023/09/07 01:28:05;;;;;;;;;8.75;7.75;;;;;-143.90;85.57;75594.00;4932094;28;101973;-75
2023/09/07 01:30:34;;;;;;;;;11.75;10.25;;;;;-143.90;85.37;75602.25;4937698;28;102103;-75
2023/09/07 01:33:03;;;;;;;;;17.50;14.00;;;;;-143.90;84.85;75598.13;4942683;28;103974;-74
2023/09/07 01:35:33;;;;;;;;;12.50;11.75;;;;;-143.90;84.92;75596.06;4918201;28;108812;-75
2023/09/07 01:38:00;;;;;;;;;8.00;6.00;;;;;-143.90;86.08;75602.25;4926989;28;102086;-76
2023/09/07 01:40:27;;;;;;;;;12.00;9.75;;;;;-143.90;87.12;75622.94;4935651;28;102377;-76
2023/09/07 01:42:54;;;;;;;;;10.75;8.75;;;;;-143.90;86.92;75635.34;4920412;28;102106;-75
2023/09/07 01:45:21;;;;;;;;;17.00;14.75;;;;;-143.90;87.37;75653.94;4928778;28;104525;-75
2023/09/07 01:47:48;;;;;;;;;11.00;10.00;;;;;-143.90;87.80;75656.03;4939987;28;102402;-75
2023/09/07 01:50:15;;;;;;;;;11.50;8.75;;;;;-143.90;87.28;75656.03;4934711;28;102014;-75
2023/09/07 01:52:42;;;;;;;;;10.25;8.75;;;;;-143.90;87.37;75651.88;4932384;28;102276;-75
2023/09/07 01:55:08;;;;;;;;;14.25;12.50;;;;;-143.90;87.10;75647.75;4928974;28;103398;-75
2023/09/07 01:57:35;;;;;;;;;13.00;11.50;;;;;-143.90;86.36;75639.47;4951540;28;102357;-76
2023/09/07 02:00:04;;;;;;;;;5.00;4.50;;;;;-143.90;87.50;75647.75;4930558;28;102436;-76
2023/09/07 02:02:31;;;;;;;;;5.00;4.25;;;;;-143.90;87.89;75656.03;4942304;28;103047;-75
2023/09/07 02:04:57;;;;;;;;;11.25;8.00;;;;;-143.90;87.13;75660.16;4923010;28;107613;-75
2023/09/07 02:07:24;;;;;;;;;11.75;11.00;;;;;-143.90;86.95;75651.88;4925750;28;102053;-75
2023/09/07 02:09:51;;;;;;;;;13.75;12.50;;;;;-143.90;86.80;75656.03;4935314;28;102347;-75
2023/09/07 02:12:18;;;;;;;;;15.75;14.00;;;;;-143.90;86.85;75660.16;4932657;28;102014;-75
2023/09/07 02:14:44;;;;;;;;;15.50;13.50;;;;;-143.90;86.62;75656.03;4940450;28;103910;-75
2023/09/07 02:17:14;;;;;;;;;10.00;8.00;;;;;-143.90;87.75;75662.22;4934453;28;101905;-75
2023/09/07 02:19:41;;;;;;;;;10.50;9.25;;;;;-143.90;87.91;75670.50;4941424;28;102288;-75
2023/09/07 02:22:07;;;;;;;;;4.75;4.75;;;;;-143.90;88.42;75664.28;4929210;28;102208;-75
2023/09/07 02:24:34;;;;;;;;;6.50;6.00;;;;;-143.90;88.62;75674.63;4917301;28;104229;-75
2023/09/07 02:27:01;;;;;;;;;5.60;5.00;;;;;-143.90;88.43;75668.44;4704637;28;5002788;-75
2023/09/07 02:29:27;;;;;;;;;10.25;7.75;;;;;-143.90;88.66;75664.28;4912566;28;102213;-75
2023/09/07 02:31:54;;;;;;;;;8.00;7.75;;;;;-143.90;87.92;75662.22;4930795;28;102534;-75
2023/09/07 02:34:21;;;;;;;;;8.75;8.00;;;;;-143.90;88.64;75668.44;4927476;28;103921;-75
2023/09/07 02:36:47;;;;;;;;;7.50;7.00;;;;;-143.90;88.37;75660.16;4928500;28;102181;-75
2023/09/07 02:39:14;;;;;;;;;4.00;3.00;;;;;-143.90;88.26;75668.44;4928342;28;101965;-75
2023/09/07 02:41:41;;;;;;;;;5.00;4.00;;;;;-143.90;88.09;75668.44;4926580;28;103445;-75
2023/09/07 02:44:07;;;;;;;;;4.75;4.75;;;;;-143.90;88.60;75666.34;4912209;28;103854;-75
2023/09/07 02:46:34;;;;;;;;;5.75;5.75;;;;;-143.90;89.09;75678.75;4924467;28;102329;-75
2023/09/07 02:49:01;;;;;;;;;5.50;5.50;;;;;-143.90;89.15;75678.75;4911609;28;102099;-76
2023/09/07 02:51:27;;;;;;;;;7.50;5.00;;;;;-143.90;88.46;75680.84;4932615;28;103801;-76
2023/09/07 02:53:56;;;;;;;;;5.75;4.25;;;;;-143.90;88.50;75680.84;4910812;28;102898;-76
2023/09/07 02:56:23;;;;;;;;;5.00;3.00;;;;;-143.90;88.77;75684.97;4916684;28;103245;-76
2023/09/07 02:58:49;;;;;;;;;3.75;3.00;;;;;-143.90;89.01;75687.03;4932307;28;102226;-75
2023/09/07 03:01:21;;;;;;;;;7.50;6.25;;;;;-143.90;89.10;75699.44;4932268;28;102452;-75
2023/09/07 03:03:48;;;;;;;;;6.25;5.25;;;;;-143.90;89.41;75701.50;4925576;28;104109;-75
2023/09/07 03:06:16;;;;;;;;;7.75;7.00;;;;;-143.90;88.59;75699.44;4926189;28;103805;-75
2023/09/07 03:08:43;;;;;;;;;7.00;5.50;;;;;-143.90;88.83;75701.50;4928490;28;103460;-75
2023/09/07 03:11:10;;;;;;;;;4.50;4.50;;;;;-143.90;88.95;75695.31;4915345;28;102401;-75
2023/09/07 03:13:37;;;;;;;;;6.75;4.75;;;;;-143.90;88.58;75695.31;4907668;28;105208;-75
2023/09/07 03:16:04;;;;;;;;;4.75;4.75;;;;;-143.90;88.62;75699.44;4928157;28;102110;-76
2023/09/07 03:18:32;;;;;;;;;6.75;5.50;;;;;-143.90;88.05;75701.50;4923183;28;103701;-76
2023/09/07 03:21:02;;;;;;;;;5.50;4.75;;;;;-143.90;88.43;75695.31;4928093;28;102328;-75
2023/09/07 03:23:30;;;;;;;;;3.25;3.25;;;;;-143.90;88.10;75695.31;4901650;28;108501;-75
2023/09/07 03:25:58;;;;;;;;;4.50;4.25;;;;;-143.90;87.70;75699.44;4914769;28;102401;-75
2023/09/07 03:28:27;;;;;;;;;5.00;4.00;;;;;-143.90;87.59;75699.44;4930679;28;101871;-75
2023/09/07 03:30:55;;;;;;;;;2.25;2.25;;;;;-143.90;87.91;75703.56;4917416;28;102746;-75
2023/09/07 03:33:22;;;;;;;;;2.75;2.00;;;;;-143.90;87.97;75709.78;4915480;28;103243;-76
2023/09/07 03:35:49;;;;;;;;;4.00;4.00;;;;;-143.90;87.83;75713.91;4907245;28;102305;-76
2023/09/07 03:38:15;;;;;;;;;2.75;2.75;;;;;-143.90;88.21;75711.84;4922354;28;102162;-75
2023/09/07 03:40:42;;;;;;;;;3.75;3.50;;;;;-143.90;88.17;75718.06;4926388;28;104274;-75
2023/09/07 03:43:09;;;;;;;;;2.75;2.50;;;;;-143.90;87.95;75720.13;4923792;28;103406;-76
2023/09/07 03:45:36;;;;;;;;;4.00;4.00;;;;;-143.90;87.65;75728.38;4926891;28;102013;-75
2023/09/07 03:48:03;;;;;;;;;3.00;2.75;;;;;-143.90;87.79;75734.59;4911083;28;102517;-75
2023/09/07 03:50:30;;;;;;;;;4.75;4.00;;;;;-143.90;88.07;75732.53;4932140;28;102412;-76
2023/09/07 03:52:56;;;;;;;;;5.00;3.25;;;;;-143.90;87.84;75740.78;4913719;28;104044;-76
2023/09/07 03:55:23;;;;;;;;;5.25;5.00;;;;;-143.90;87.59;75744.94;4924253;28;106444;-74
2023/09/07 03:57:50;;;;;;;;;5.00;5.00;;;;;-143.90;86.79;75757.34;4904551;28;103567;-75
2023/09/07 04:00:18;;;;;;;;;2.75;2.75;;;;;-143.90;86.96;75759.41;4923620;28;102140;-76
2023/09/07 04:02:45;;;;;;;;;5.25;5.00;;;;;-143.90;86.86;75761.47;4931824;28;104607;-75
2023/09/07 04:05:12;;;;;;;;;5.00;5.00;;;;;-143.90;86.74;75769.75;4923596;28;102046;-76
2023/09/07 04:07:39;;;;;;;;;5.25;5.00;;;;;-143.90;86.57;75775.94;4928565;28;102039;-76
2023/09/07 04:10:06;;;;;;;;;6.25;5.00;;;;;-143.90;86.97;75780.09;4906512;28;102260;-75
2023/09/07 04:12:33;;;;;;;;;5.00;5.00;;;;;-143.90;86.83;75792.50;4924203;28;103680;-76
2023/09/07 04:15:03;;;;;;;;;4.00;4.00;;;;;-143.90;86.82;75794.56;4910344;28;102210;-75
2023/09/07 04:17:32;;;;;;;;;4.75;4.75;;;;;-143.90;86.56;75800.75;4927645;28;102452;-75
2023/09/07 04:19:59;;;;;;;;;4.25;4.25;;;;;-143.90;86.52;75804.91;4909858;28;103615;-76
2023/09/07 04:22:25;;;;;;;;;4.00;4.00;;;;;-143.90;87.79;75809.03;4926726;28;104281;-75
2023/09/07 04:24:52;;;;;;;;;3.25;3.25;;;;;-143.90;88.66;75819.38;4930432;28;102152;-75
2023/09/07 04:27:19;;;;;;;;;5.00;4.50;;;;;-143.90;89.01;75825.56;4919199;28;102325;-75
2023/09/07 04:29:45;;;;;;;;;3.00;2.00;;;;;-143.90;89.58;75819.38;4932874;28;102372;-75
2023/09/07 04:32:12;;;;;;;;;4.00;3.50;;;;;-143.90;91.11;75829.72;4912061;28;103570;-75
2023/09/07 04:34:39;;;;;;;;;6.50;6.00;;;;;-143.90;92.17;75829.72;4919826;28;102603;-76
2023/09/07 04:37:05;;;;;;;;;10.50;7.00;;;;;-143.90;93.13;75829.72;4921861;28;102576;-75
2023/09/07 04:39:32;;;;;;;;;6.50;6.00;;;;;-143.90;93.46;75825.56;4926531;28;103735;-75
2023/09/07 04:41:59;;;;;;;;;8.50;7.50;;;;;-143.90;93.41;75829.72;4915987;28;109858;-75
2023/09/07 04:44:27;;;;;;;;;9.75;9.00;;;;;-143.90;93.41;75831.78;4906919;28;102034;-76
2023/09/07 04:46:56;;;;;;;;;14.50;11.25;;;;;-143.90;93.62;75821.44;4916365;28;101992;-76
2023/09/07 04:49:24;;;;;;;;;11.75;11.00;;;;;-143.90;93.34;75809.03;4918900;28;105415;-76
2023/09/07 04:51:53;;;;;;;;;12.00;11.25;;;;;-143.90;93.47;75794.56;4907717;28;104131;-76
2023/09/07 04:54:20;;;;;;;;;9.25;9.25;;;;;-143.90;93.27;75788.34;4925814;28;101820;-76
2023/09/07 04:56:47;;;;;;;;;9.25;6.50;;;;;-143.90;93.26;75773.88;4929990;28;103730;-76
2023/09/07 04:59:14;;;;;;;;;7.50;7.25;;;;;-143.90;92.56;75763.53;4910222;28;102968;-76
2023/09/07 05:01:41;;;;;;;;;5.75;5.75;;;;;-143.90;92.45;75755.28;4904304;28;104270;-75
2023/09/07 05:04:08;;;;;;;;;4.00;4.00;;;;;-143.90;92.37;75747.00;4906293;28;102496;-75
2023/09/07 05:06:37;;;;;;;;;5.00;5.00;;;;;-143.90;91.79;75742.88;4915048;28;102689;-76
2023/09/07 05:09:04;;;;;;;;;4.75;3.75;;;;;-143.90;91.70;75738.72;4926751;28;102018;-76
2023/09/07 05:11:30;;;;;;;;;5.50;4.25;;;;;-143.90;91.84;75728.38;4907793;28;107692;-76
2023/09/07 05:13:57;;;;;;;;;4.75;3.75;;;;;-143.90;91.46;75715.97;4926370;28;102527;-76
2023/09/07 05:16:24;;;;;;;;;3.25;3.00;;;;;-143.90;91.24;75715.97;4921400;28;103438;-74
2023/09/07 05:18:50;;;;;;;;;3.00;2.50;;;;;-143.90;91.45;75705.66;4909890;28;102418;-74
2023/09/07 05:21:17;;;;;;;;;3.75;3.25;;;;;-143.90;90.81;75693.25;4928341;28;104369;-75
2023/09/07 05:23:44;;;;;;;;;4.75;3.50;;;;;-143.90;90.81;75689.09;4947246;28;102043;-75
2023/09/07 05:26:11;;;;;;;;;6.25;5.00;;;;;-143.90;91.24;75697.38;4945326;28;102317;-75
2023/09/07 05:28:41;;;;;;;;;11.75;9.25;;;;;-143.90;91.11;75689.09;4929702;28;102135;-75
2023/09/07 05:31:08;;;;;;;;;8.00;7.50;;;;;-143.90;91.40;75676.69;4931123;28;104418;-75
2023/09/07 05:33:34;;;;;;;;;12.50;11.00;;;;;-143.90;90.26;75660.16;4934020;28;107610;-75
2023/09/07 05:36:01;;;;;;;;;9.50;8.50;;;;;-143.90;90.31;75647.75;4942989;28;102128;-75
2023/09/07 05:38:28;;;;;;;;;9.00;9.00;;;;;-143.90;89.86;75637.41;4930725;28;102948;-75
2023/09/07 05:40:59;;;;;;;;;12.00;10.25;;;;;-143.90;89.54;75622.94;4933416;28;108724;-75
2023/09/07 05:43:25;;;;;;;;;12.00;11.00;;;;;-143.90;89.18;75602.25;4929069;28;102427;-76
2023/09/07 05:45:52;;;;;;;;;12.50;12.25;;;;;-143.90;88.89;75581.59;4934967;28;102024;-76
2023/09/07 05:48:19;;;;;;;;;20.00;16.50;;;;;-143.90;88.65;75573.31;4945121;28;102248;-75
2023/09/07 05:50:46;;;;;;;;;12.25;12.00;;;;;-143.90;87.75;75544.38;4929039;28;104516;-76
2023/09/07 05:53:12;;;;;;;;;14.25;12.75;;;;;-143.90;86.92;75519.56;4932324;28;102174;-76
2023/09/07 05:55:39;;;;;;;;;13.75;12.25;;;;;-143.90;86.41;75490.63;4930000;28;102242;-75
2023/09/07 05:58:07;;;;;;;;;12.75;11.00;;;;;-143.90;84.11;75445.13;4931593;28;101983;-74
2023/09/07 06:00:35;;;;;;;;;16.50;14.25;;;;;-143.90;83.79;75414.13;4935730;28;104136;-76
2023/09/07 06:03:03;;;;;;;;;11.50;9.25;;;;;-143.90;81.60;75372.75;4945407;28;102287;-75
2023/09/07 06:05:30;;;;;;;;;9.75;9.00;;;;;-143.90;81.16;75341.75;4933425;28;102220;-75
2023/09/07 06:07:57;;;;;;;;;11.00;10.00;;;;;-143.90;80.72;75329.34;4926909;28;102264;-75
2023/09/07 06:10:24;;;;;;;;;15.50;14.00;;;;;-143.90;79.79;75304.53;4930495;28;104053;-75
2023/09/07 06:12:50;;;;;;;;;13.75;11.00;;;;;-143.90;79.36;75281.78;4925137;28;101785;-75
2023/09/07 06:15:17;;;;;;;;;13.50;11.50;;;;;-143.90;78.99;75283.84;4929501;28;102066;-74
2023/09/07 06:17:45;;;;;;;;;11.00;10.25;;;;;-143.90;78.77;75267.31;4920381;28;103554;-74
2023/09/07 06:20:12;;;;;;;;;11.50;11.50;;;;;-143.90;79.39;75246.66;4933732;28;104605;-74
2023/09/07 06:22:39;;;;;;;;;11.25;10.25;;;;;-143.90;78.08;75246.66;4911792;28;102064;-75
2023/09/07 06:25:06;;;;;;;;;11.50;11.00;;;;;-143.90;77.15;75221.84;4901059;28;101828;-74
2023/09/07 06:27:33;;;;;;;;;16.00;15.50;;;;;-143.90;76.40;75184.63;4930846;28;102283;-75
2023/09/07 06:30:00;;;;;;;;;19.25;16.50;;;;;-143.90;75.01;75149.47;4923499;28;109652;-74
2023/09/07 06:32:27;;;;;;;;;21.75;18.00;;;;;-143.90;75.80;75124.66;4925902;28;102148;-74
2023/09/07 06:34:54;;;;;;;;;13.75;12.00;;;;;-143.90;72.89;75089.53;4928580;28;102079;-74
2023/09/07 06:37:21;;;;;;;;;20.50;20.00;;;;;-143.90;72.96;75064.72;4929392;28;102188;-74
2023/09/07 06:39:47;;;;;;;;;23.50;17.25;;;;;-143.90;71.44;75056.44;4917374;28;103565;-74
2023/09/07 06:42:15;;;;;;;;;21.25;19.00;;;;;-143.90;70.63;75021.31;4933237;28;104778;-74
2023/09/07 06:44:42;;;;;;;;;16.33;15.33;;;;;-143.90;69.73;75025.44;4918532;28;102351;-75
2023/09/07 06:47:09;;;;;;;;;15.33;12.33;;;;;-143.90;72.19;74994.44;4919209;28;102412;-75
2023/09/07 06:49:38;;;;;;;;;19.50;18.50;;;;;-143.90;69.24;74973.75;4901515;28;103442;-75
2023/09/07 06:52:05;;;;;;;;;12.33;12.33;;;;;-143.90;72.16;74944.81;4930091;28;102420;-74
2023/09/07 06:54:31;;;;;;;;;13.00;12.67;;;;;-143.90;70.02;74940.69;4922447;28;102230;-75
2023/09/07 06:56:58;;;;;;;;;15.00;13.00;;;;;-143.90;70.04;74922.06;4918847;28;102354;-75
2023/09/07 06:59:25;;;;;;;;;17.00;16.00;;;;;-143.90;69.54;74913.81;4935536;28;104024;-75
2023/09/07 07:01:52;;;;;;;;;13.00;12.00;;;;;-143.90;68.94;74897.25;4928654;28;102049;-75
2023/09/07 07:04:19;;;;;;;;;14.00;13.00;;;;;-143.90;69.36;74884.88;4928811;28;104564;-74
2023/09/07 07:06:46;;;;;;;;;15.67;14.33;;;;;-143.90;66.30;74862.13;4946548;28;102346;-75
2023/09/07 07:09:13;;;;;;;;;13.00;13.00;;;;;-143.90;67.67;74839.38;4933985;28;104045;-75
2023/09/07 07:11:41;;;;;;;;;12.67;11.67;;;;;-143.90;66.72;74843.53;4906779;28;102640;-75
2023/09/07 07:14:08;;;;;;;;;12.33;11.33;;;;;-143.90;68.19;74812.50;4922152;28;103350;-74
2023/09/07 07:16:35;;;;;;;;;10.00;9.00;;;;;-143.90;66.68;74804.25;4923279;28;102209;-75
2023/09/07 07:19:02;;;;;;;;;17.33;17.33;;;;;-143.90;64.22;74767.03;4931141;28;104014;-74
2023/09/07 07:21:29;;;;;;;;;15.00;13.00;;;;;-143.90;67.32;74775.31;4920839;28;101949;-74
2023/09/07 07:23:56;;;;;;;;;11.00;10.00;;;;;-143.90;65.44;74754.63;4906903;28;103045;-74
2023/09/07 07:26:22;;;;;;;;;15.00;13.00;;;;;-143.90;65.84;74756.69;4922193;28;102525;-74
2023/09/07 07:28:49;;;;;;;;;15.67;13.67;;;;;-143.90;67.21;74731.88;4911379;28;104269;-74
2023/09/07 07:31:16;;;;;;;;;13.33;13.00;;;;;-143.90;65.68;74713.28;4919336;28;102297;-75
2023/09/07 07:33:43;;;;;;;;;10.00;9.33;;;;;-143.90;62.88;74698.81;4929179;28;102460;-75
2023/09/07 07:36:09;;;;;;;;;15.33;12.00;;;;;-143.90;64.22;74676.06;4922229;28;102468;-75
2023/09/07 07:38:36;;;;;;;;;10.67;9.33;;;;;-143.90;64.36;74643.00;4895666;28;102948;-73
2023/09/07 07:41:03;;;;;;;;;10.33;10.33;;;;;-143.90;60.25;74620.25;4915160;28;102299;-76
2023/09/07 07:43:31;;;;;;;;;9.00;9.00;;;;;-143.90;61.15;74603.72;4918189;28;102149;-74
2023/09/07 07:45:59;;;;;;;;;10.00;10.00;;;;;-143.90;61.19;74585.13;4908060;28;102911;-73
2023/09/07 07:48:28;;;;;;;;;10.00;10.00;;;;;-143.90;58.86;74576.84;4906173;28;105850;-75
2023/09/07 07:50:55;;;;;;;;;15.00;13.67;;;;;-143.90;58.35;74587.19;4933025;28;103627;-75
2023/09/07 07:53:22;;;;;;;;;17.00;14.67;;;;;-143.90;59.62;74578.91;4919318;28;102509;-75
2023/09/07 07:55:49;;;;;;;;;16.33;15.00;;;;;-143.90;60.71;74570.66;4934044;28;102006;-74
2023/09/07 07:58:16;;;;;;;;;14.67;12.00;;;;;-143.90;59.91;74566.53;4913741;28;104166;-75
2023/09/07 08:00:47;;;;;;;;;12.33;12.00;;;;;-143.90;59.20;74552.03;4921534;28;102170;-74
2023/09/07 08:03:15;;;;;;;;;14.67;14.00;;;;;-143.90;59.71;74533.44;4927786;28;102312;-75
2023/09/07 08:05:42;;;;;;;;;10.00;10.00;;;;;-143.90;58.67;74514.84;4923413;28;102489;-74
2023/09/07 08:08:10;;;;;;;;;11.67;9.33;;;;;-143.90;59.45;74502.44;4921292;28;105147;-74
2023/09/07 08:10:37;;;;;;;;;11.33;10.33;;;;;-143.90;58.07;74481.78;4931149;28;102826;-75
2023/09/07 08:13:04;;;;;;;;;10.00;9.00;;;;;-143.90;54.41;74461.09;4906905;28;102410;-74
2023/09/07 08:15:34;;;;;;;;;10.00;9.00;;;;;-143.90;55.60;74438.38;4919577;28;102024;-74
2023/09/07 08:18:01;;;;;;;;;11.67;9.33;;;;;-143.90;54.69;74421.81;4934226;28;108757;-75
2023/09/07 08:20:29;;;;;;;;;8.00;7.00;;;;;-143.90;54.60;74399.09;4926917;28;102353;-75
2023/09/07 08:22:58;;;;;;;;;6.00;6.00;;;;;-143.90;52.75;74378.41;4925861;28;102205;-75
2023/09/07 08:25:25;;;;;;;;;10.33;10.00;;;;;-143.90;51.77;74405.28;4912025;28;102395;-75
2023/09/07 08:27:55;;;;;;;;;11.33;10.33;;;;;-143.90;51.04;74415.63;4932264;28;104116;-75
2023/09/07 08:30:24;;;;;;;;;8.00;8.00;;;;;-143.90;53.10;74386.69;4934086;28;102339;-74
2023/09/07 08:32:51;;;;;;;;;5.00;4.00;;;;;-143.90;50.99;74368.09;4930258;28;102141;-75
2023/09/07 08:35:19;;;;;;;;;6.00;6.00;;;;;-143.90;51.45;74370.16;4930097;28;102438;-74
2023/09/07 08:37:45;;;;;;;;;10.33;9.33;;;;;-143.90;51.23;74390.81;4923434;28;103302;-75
2023/09/07 08:40:12;;;;;;;;;8.33;8.33;;;;;-143.90;52.31;74394.94;4925954;28;102148;-73
2023/09/07 08:42:39;;;;;;;;;11.00;11.00;;;;;-143.90;51.31;74399.09;4909341;28;104840;-73
2023/09/07 08:45:08;;;;;;;;;8.00;7.00;;;;;-143.90;50.31;74378.41;4933904;28;102260;-74
2023/09/07 08:47:37;;;;;;;;;10.00;9.67;;;;;-143.90;50.09;74359.81;4922701;28;104255;-74
2023/09/07 08:50:08;;;;;;;;;7.00;6.67;;;;;-143.90;50.43;74345.34;4924698;28;103171;-74
2023/09/07 08:52:36;;;;;;;;;8.00;8.00;;;;;-143.90;50.43;74345.34;4909342;28;101990;-74
2023/09/07 08:55:06;;;;;;;;;8.00;8.00;;;;;-143.90;49.61;74324.69;4936865;28;102142;-74
2023/09/07 08:57:33;;;;;;;;;6.00;6.00;;;;;-143.90;49.76;74316.41;4933110;28;107296;-74
2023/09/07 09:00:00;;;;;;;;;7.00;6.00;;;;;-143.90;48.16;74301.94;4912850;28;102447;-73
2023/09/07 09:02:26;;;;;;;;;8.67;8.00;;;;;-143.90;48.47;74312.28;4932432;28;102629;-73
2023/09/07 09:04:53;;;;;;;;;10.00;8.33;;;;;-143.90;50.50;74306.06;4931281;28;102898;-74
2023/09/07 09:07:23;;;;;;;;;8.00;8.00;;;;;-143.90;48.94;74304.00;4931025;28;104006;-74
2023/09/07 09:09:50;;;;;;;;;6.00;6.00;;;;;-143.90;49.67;74306.06;4922168;28;102504;-74
2023/09/07 09:12:17;;;;;;;;;7.67;7.00;;;;;-143.90;50.04;74304.00;4899406;28;102216;-73
2023/09/07 09:14:44;;;;;;;;;12.67;10.00;;;;;-143.90;48.92;74306.06;4921138;28;102183;-74
2023/09/07 09:17:13;;;;;;;;;9.00;8.00;;;;;-143.90;47.76;74304.00;4924525;28;104365;-74
2023/09/07 09:19:43;;;;;;;;;11.00;9.33;;;;;-143.90;48.08;74287.47;4923275;28;102285;-74
2023/09/07 09:22:11;;;;;;;;;8.33;7.00;;;;;-143.90;48.89;74273.00;4891780;28;102442;-74
2023/09/07 09:24:38;;;;;;;;;7.33;6.00;;;;;-143.90;47.49;74275.06;4912732;28;102386;-73
2023/09/07 09:27:05;;;;;;;;;5.00;5.00;;;;;-143.90;47.07;74270.94;4909483;28;103908;-74
2023/09/07 09:29:33;;;;;;;;;6.67;6.00;;;;;-143.90;48.50;74268.88;4915348;28;101995;-73
2023/09/07 09:32:04;;;;;;;;;8.00;6.00;;;;;-143.90;47.56;74270.94;4912783;28;102462;-73
2023/09/07 09:34:35;;;;;;;;;8.00;8.00;;;;;-143.90;48.17;74266.81;4919779;28;102408;-73
2023/09/07 09:37:03;;;;;;;;;10.67;10.00;;;;;-143.90;47.93;74260.59;4912862;28;108651;-74
2023/09/07 09:39:30;;;;;;;;;7.00;7.00;;;;;-143.90;47.75;74250.25;4910499;28;102310;-74
2023/09/07 09:41:57;;;;;;;;;6.33;6.00;;;;;-143.90;47.37;74237.88;4911903;28;102152;-74
2023/09/07 09:44:27;;;;;;;;;7.00;7.00;;;;;-143.90;47.06;74246.13;4897460;28;101991;-74
2023/09/07 09:46:55;;;;;;;;;6.67;6.00;;;;;-143.90;47.91;74246.13;4910817;28;104210;-74
2023/09/07 09:49:22;;;;;;;;;6.00;5.00;;;;;-143.90;47.27;74242.00;4924788;28;101898;-74
2023/09/07 09:51:50;;;;;;;;;6.00;5.67;;;;;-143.90;47.76;74223.41;4907224;28;102195;-73
2023/09/07 09:54:22;;;;;;;;;5.67;5.00;;;;;-143.90;46.75;74229.59;4915620;28;102421;-73
2023/09/07 09:56:48;;;;;;;;;6.33;6.00;;;;;-143.90;48.52;74233.72;4911191;28;104190;-74
2023/09/07 09:59:15;;;;;;;;;6.67;6.67;;;;;-143.90;46.65;74239.94;4915048;28;102345;-74
2023/09/07 10:01:50;;;;;;;;;7.67;7.00;;;;;-143.90;48.54;74229.59;4892570;28;102210;-75
2023/09/07 10:04:18;;;;;;;;;8.67;8.67;;;;;-143.90;48.67;74221.31;4905991;28;102595;-73
2023/09/07 10:07:14;;;;;;;;;8.33;7.33;;;;;-143.90;48.06;74242.00;4906383;28;104432;-74
2023/09/07 10:09:43;;;;;;;;;7.67;7.67;;;;;-143.90;47.22;74223.41;4886324;28;102411;-73
2023/09/07 10:12:13;;;;;;;;;9.00;8.00;;;;;-143.90;46.38;74213.06;4896746;28;103652;-74
2023/09/07 10:14:45;;;;;;;;;6.00;6.00;;;;;-143.90;47.98;74196.53;4913213;28;102599;-74
2023/09/07 10:17:22;;;;;;;;;6.67;6.67;;;;;-143.90;47.31;74206.88;4909383;28;104224;-74
2023/09/07 10:19:51;;;;;;;;;7.00;7.00;;;;;-143.90;47.73;74196.53;4900020;28;102137;-74
2023/09/07 10:22:23;;;;;;;;;7.33;7.00;;;;;-143.90;46.75;74196.53;4927470;28;101991;-75
2023/09/07 10:24:58;;;;;;;;;6.00;5.67;;;;;-143.90;47.40;74175.84;4935515;28;102287;-73
2023/09/07 10:27:24;;;;;;;;;8.67;7.33;;;;;-143.90;46.21;74186.19;4917757;28;103399;-73
2023/09/07 10:29:54;;;;;;;;;6.33;5.67;;;;;-143.90;47.54;74184.13;4909128;28;102359;-73
2023/09/07 10:32:22;;;;;;;;;5.33;5.00;;;;;-143.90;46.31;74175.84;4921621;28;102104;-73
2023/09/07 10:34:50;;;;;;;;;6.00;5.00;;;;;-143.90;45.31;74188.25;4932903;28;102046;-74
2023/09/07 10:37:31;;;;;;;;;6.00;6.00;;;;;-143.90;46.79;74184.13;4926026;28;103554;-74
2023/09/07 10:40:11;;;;;;;;;1.00;1.00;;;;;-143.90;45.22;74180.00;4922976;28;102503;-74
2023/09/07 10:42:47;;;;;;;;;6.00;5.67;;;;;-143.90;45.90;74190.31;4927056;28;102027;-73
2023/09/07 10:45:33;;;;;;;;;7.00;5.00;;;;;-143.90;45.60;74188.25;4915969;28;102469;-73
2023/09/07 10:48:07;;;;;;;;;5.33;5.33;;;;;-143.90;46.78;74194.47;4923783;28;105419;-74
2023/09/07 10:50:44;;;;;;;;;6.00;5.00;;;;;-143.90;46.70;74177.94;4919433;28;102715;-72
2023/09/07 10:53:23;;;;;;;;;7.00;6.00;;;;;-143.90;46.01;74175.84;4906444;28;102522;-74
2023/09/07 10:55:51;;;;;;;;;4.33;3.67;;;;;-143.90;45.82;74171.72;4932029;28;102145;-74
2023/09/07 10:58:31;;;;;;;;;7.67;7.00;;;;;-143.90;44.94;74192.41;4926711;28;104152;-74
2023/09/07 11:00:59;;;;;;;;;7.33;6.33;;;;;-143.90;47.47;74175.84;4914323;28;102260;-74
2023/09/07 11:03:27;;;;;;;;;9.00;9.00;;;;;-143.90;47.63;74180.00;4921235;28;102936;-74
2023/09/07 11:06:06;;;;;;;;;11.00;10.33;;;;;-143.90;49.91;74196.53;4921066;28;102234;-73